sensor_id;sensor_type;location;lat;lon;timestamp;temperature;humidity
49222;DHT22;35047;37.588;-122.048;2022-09-21T00:01:17;25.30;61.30
49222;DHT22;35047;37.588;-122.048;2022-09-21T00:03:44;25.20;61.20
49222;DHT22;35047;37.588;-122.048;2022-09-21T00:06:12;25.20;61.30
49222;DHT22;35047;37.588;-122.048;2022-09-21T00:08:40;25.30;61.80
49222;DHT22;35047;37.588;-122.048;2022-09-21T00:11:10;25.30;62.00
49222;DHT22;35047;37.588;-122.048;2022-09-21T00:13:37;25.40;61.70
49222;DHT22;35047;37.588;-122.048;2022-09-21T00:16:07;25.20;61.30
49222;DHT22;35047;37.588;-122.048;2022-09-21T00:18:35;25.00;61.90
49222;DHT22;35047;37.588;-122.048;2022-09-21T00:21:07;25.20;62.60
49222;DHT22;35047;37.588;-122.048;2022-09-21T00:23:35;25.10;61.30
49222;DHT22;35047;37.588;-122.048;2022-09-21T00:26:12;25.00;61.40
49222;DHT22;35047;37.588;-122.048;2022-09-21T00:28:40;25.20;61.70
49222;DHT22;35047;37.588;-122.048;2022-09-21T00:31:09;25.30;61.90
49222;DHT22;35047;37.588;-122.048;2022-09-21T00:33:38;25.50;61.10
49222;DHT22;35047;37.588;-122.048;2022-09-21T00:36:07;25.50;61.20
49222;DHT22;35047;37.588;-122.048;2022-09-21T00:38:35;25.90;61.20
49222;DHT22;35047;37.588;-122.048;2022-09-21T00:41:03;26.20;60.40
49222;DHT22;35047;37.588;-122.048;2022-09-21T00:43:33;26.30;59.80
49222;DHT22;35047;37.588;-122.048;2022-09-21T00:46:07;26.40;60.40
49222;DHT22;35047;37.588;-122.048;2022-09-21T00:48:39;26.60;59.20
49222;DHT22;35047;37.588;-122.048;2022-09-21T00:51:08;26.80;59.40
49222;DHT22;35047;37.588;-122.048;2022-09-21T00:53:37;26.90;59.20
49222;DHT22;35047;37.588;-122.048;2022-09-21T00:56:04;26.90;59.10
49222;DHT22;35047;37.588;-122.048;2022-09-21T00:58:37;26.70;59.10
49222;DHT22;35047;37.588;-122.048;2022-09-21T01:01:05;26.80;58.90
49222;DHT22;35047;37.588;-122.048;2022-09-21T01:03:33;26.80;58.80
49222;DHT22;35047;37.588;-122.048;2022-09-21T01:06:00;27.10;58.50
49222;DHT22;35047;37.588;-122.048;2022-09-21T01:08:27;27.30;57.80
49222;DHT22;35047;37.588;-122.048;2022-09-21T01:22:36;26.80;57.70
49222;DHT22;35047;37.588;-122.048;2022-09-21T01:30:25;26.30;58.30
49222;DHT22;35047;37.588;-122.048;2022-09-21T01:33:04;26.10;59.10
49222;DHT22;35047;37.588;-122.048;2022-09-21T01:35:42;25.90;59.40
49222;DHT22;35047;37.588;-122.048;2022-09-21T01:38:39;25.60;60.70
49222;DHT22;35047;37.588;-122.048;2022-09-21T01:41:12;25.20;61.60
49222;DHT22;35047;37.588;-122.048;2022-09-21T01:43:45;24.90;62.80
49222;DHT22;35047;37.588;-122.048;2022-09-21T01:46:16;24.70;63.80
49222;DHT22;35047;37.588;-122.048;2022-09-21T01:48:47;24.50;64.90
49222;DHT22;35047;37.588;-122.048;2022-09-21T01:51:17;24.30;65.60
49222;DHT22;35047;37.588;-122.048;2022-09-21T01:53:55;24.20;65.70
49222;DHT22;35047;37.588;-122.048;2022-09-21T01:56:29;24.00;66.00
49222;DHT22;35047;37.588;-122.048;2022-09-21T01:59:19;24.10;66.40
49222;DHT22;35047;37.588;-122.048;2022-09-21T02:01:54;23.90;65.10
49222;DHT22;35047;37.588;-122.048;2022-09-21T02:04:23;23.80;65.10
49222;DHT22;35047;37.588;-122.048;2022-09-21T02:06:50;23.70;65.40
49222;DHT22;35047;37.588;-122.048;2022-09-21T02:09:17;23.70;66.20
49222;DHT22;35047;37.588;-122.048;2022-09-21T02:11:45;23.60;67.10
49222;DHT22;35047;37.588;-122.048;2022-09-21T02:14:16;23.40;67.40
49222;DHT22;35047;37.588;-122.048;2022-09-21T02:17:25;23.60;68.70
49222;DHT22;35047;37.588;-122.048;2022-09-21T02:25:15;23.40;69.40
49222;DHT22;35047;37.588;-122.048;2022-09-21T02:27:55;23.20;69.80
49222;DHT22;35047;37.588;-122.048;2022-09-21T02:30:25;23.10;70.40
49222;DHT22;35047;37.588;-122.048;2022-09-21T02:33:11;23.00;71.20
49222;DHT22;35047;37.588;-122.048;2022-09-21T02:46:55;22.90;73.70
49222;DHT22;35047;37.588;-122.048;2022-09-21T02:49:29;22.80;73.60
49222;DHT22;35047;37.588;-122.048;2022-09-21T02:51:59;22.60;73.80
49222;DHT22;35047;37.588;-122.048;2022-09-21T02:54:30;22.50;74.00
49222;DHT22;35047;37.588;-122.048;2022-09-21T02:56:59;22.40;74.00
49222;DHT22;35047;37.588;-122.048;2022-09-21T02:59:27;22.40;73.70
49222;DHT22;35047;37.588;-122.048;2022-09-21T03:01:53;22.50;73.60
49222;DHT22;35047;37.588;-122.048;2022-09-21T03:04:21;22.30;73.40
49222;DHT22;35047;37.588;-122.048;2022-09-21T03:06:48;22.30;73.60
49222;DHT22;35047;37.588;-122.048;2022-09-21T03:09:16;22.20;74.10
49222;DHT22;35047;37.588;-122.048;2022-09-21T03:11:43;22.20;74.80
49222;DHT22;35047;37.588;-122.048;2022-09-21T03:14:10;22.20;74.40
49222;DHT22;35047;37.588;-122.048;2022-09-21T03:16:37;22.10;74.40
49222;DHT22;35047;37.588;-122.048;2022-09-21T03:19:04;22.10;75.00
49222;DHT22;35047;37.588;-122.048;2022-09-21T03:21:31;22.10;75.20
49222;DHT22;35047;37.588;-122.048;2022-09-21T03:23:57;22.10;75.60
49222;DHT22;35047;37.588;-122.048;2022-09-21T03:26:24;22.10;75.90
49222;DHT22;35047;37.588;-122.048;2022-09-21T03:28:51;22.10;76.00
49222;DHT22;35047;37.588;-122.048;2022-09-21T03:31:21;22.10;75.80
49222;DHT22;35047;37.588;-122.048;2022-09-21T03:33:48;22.10;76.40
49222;DHT22;35047;37.588;-122.048;2022-09-21T03:36:15;22.00;76.40
49222;DHT22;35047;37.588;-122.048;2022-09-21T03:38:44;22.00;76.40
49222;DHT22;35047;37.588;-122.048;2022-09-21T03:41:10;22.10;76.40
49222;DHT22;35047;37.588;-122.048;2022-09-21T03:43:39;22.20;76.80
49222;DHT22;35047;37.588;-122.048;2022-09-21T03:46:06;22.00;77.70
49222;DHT22;35047;37.588;-122.048;2022-09-21T03:48:33;21.90;77.70
49222;DHT22;35047;37.588;-122.048;2022-09-21T03:51:00;21.80;78.20
49222;DHT22;35047;37.588;-122.048;2022-09-21T03:53:27;21.80;78.60
49222;DHT22;35047;37.588;-122.048;2022-09-21T03:55:53;21.70;78.30
49222;DHT22;35047;37.588;-122.048;2022-09-21T03:58:20;21.70;78.60
49222;DHT22;35047;37.588;-122.048;2022-09-21T04:00:47;21.60;78.50
49222;DHT22;35047;37.588;-122.048;2022-09-21T04:03:13;21.50;79.30
49222;DHT22;35047;37.588;-122.048;2022-09-21T04:05:40;21.50;79.50
49222;DHT22;35047;37.588;-122.048;2022-09-21T04:08:06;21.40;80.10
49222;DHT22;35047;37.588;-122.048;2022-09-21T04:10:34;21.30;79.90
49222;DHT22;35047;37.588;-122.048;2022-09-21T04:13:02;21.30;80.70
49222;DHT22;35047;37.588;-122.048;2022-09-21T04:15:31;21.20;80.40
49222;DHT22;35047;37.588;-122.048;2022-09-21T04:17:58;21.20;81.30
49222;DHT22;35047;37.588;-122.048;2022-09-21T04:20:25;21.30;80.70
49222;DHT22;35047;37.588;-122.048;2022-09-21T04:22:51;21.30;80.70
49222;DHT22;35047;37.588;-122.048;2022-09-21T04:25:18;21.20;80.80
49222;DHT22;35047;37.588;-122.048;2022-09-21T04:27:44;21.20;81.50
49222;DHT22;35047;37.588;-122.048;2022-09-21T04:30:13;21.20;81.20
49222;DHT22;35047;37.588;-122.048;2022-09-21T04:32:39;21.30;80.80
49222;DHT22;35047;37.588;-122.048;2022-09-21T04:35:07;21.20;80.80
49222;DHT22;35047;37.588;-122.048;2022-09-21T04:37:33;21.30;81.00
49222;DHT22;35047;37.588;-122.048;2022-09-21T04:40:02;21.30;80.40
49222;DHT22;35047;37.588;-122.048;2022-09-21T04:42:29;21.30;80.20
49222;DHT22;35047;37.588;-122.048;2022-09-21T04:44:56;21.30;80.60
49222;DHT22;35047;37.588;-122.048;2022-09-21T04:47:23;21.20;80.70
49222;DHT22;35047;37.588;-122.048;2022-09-21T04:49:50;21.10;81.10
49222;DHT22;35047;37.588;-122.048;2022-09-21T04:52:18;21.10;80.50
49222;DHT22;35047;37.588;-122.048;2022-09-21T04:54:45;21.30;80.20
49222;DHT22;35047;37.588;-122.048;2022-09-21T04:57:12;21.20;80.60
49222;DHT22;35047;37.588;-122.048;2022-09-21T04:59:39;21.20;81.20
49222;DHT22;35047;37.588;-122.048;2022-09-21T05:02:06;21.20;80.70
49222;DHT22;35047;37.588;-122.048;2022-09-21T05:04:32;21.20;80.70
49222;DHT22;35047;37.588;-122.048;2022-09-21T05:06:59;21.10;80.60
49222;DHT22;35047;37.588;-122.048;2022-09-21T05:09:26;21.00;81.20
49222;DHT22;35047;37.588;-122.048;2022-09-21T05:12:24;21.00;82.10
49222;DHT22;35047;37.588;-122.048;2022-09-21T05:14:52;21.00;82.10
49222;DHT22;35047;37.588;-122.048;2022-09-21T05:17:21;21.00;81.10
49222;DHT22;35047;37.588;-122.048;2022-09-21T05:19:48;21.00;80.80
49222;DHT22;35047;37.588;-122.048;2022-09-21T05:22:16;21.00;81.00
49222;DHT22;35047;37.588;-122.048;2022-09-21T05:24:44;21.00;81.20
49222;DHT22;35047;37.588;-122.048;2022-09-21T05:27:11;21.00;81.30
49222;DHT22;35047;37.588;-122.048;2022-09-21T05:29:39;21.10;82.10
49222;DHT22;35047;37.588;-122.048;2022-09-21T05:35:34;21.10;82.10
49222;DHT22;35047;37.588;-122.048;2022-09-21T05:38:13;21.10;81.70
49222;DHT22;35047;37.588;-122.048;2022-09-21T05:40:43;21.10;81.20
49222;DHT22;35047;37.588;-122.048;2022-09-21T05:43:10;21.00;80.90
49222;DHT22;35047;37.588;-122.048;2022-09-21T05:45:41;20.90;81.60
49222;DHT22;35047;37.588;-122.048;2022-09-21T05:48:47;20.80;81.40
49222;DHT22;35047;37.588;-122.048;2022-09-21T05:51:40;20.90;81.70
49222;DHT22;35047;37.588;-122.048;2022-09-21T05:57:18;20.90;81.90
49222;DHT22;35047;37.588;-122.048;2022-09-21T06:02:56;20.80;82.80
49222;DHT22;35047;37.588;-122.048;2022-09-21T06:05:29;20.90;82.60
49222;DHT22;35047;37.588;-122.048;2022-09-21T06:07:55;21.00;82.50
49222;DHT22;35047;37.588;-122.048;2022-09-21T06:10:22;21.10;81.40
49222;DHT22;35047;37.588;-122.048;2022-09-21T06:12:50;21.00;80.30
49222;DHT22;35047;37.588;-122.048;2022-09-21T06:15:17;21.20;80.10
49222;DHT22;35047;37.588;-122.048;2022-09-21T06:17:43;21.10;80.20
49222;DHT22;35047;37.588;-122.048;2022-09-21T06:20:10;21.10;80.10
49222;DHT22;35047;37.588;-122.048;2022-09-21T06:22:37;21.10;80.40
49222;DHT22;35047;37.588;-122.048;2022-09-21T06:25:04;21.10;80.80
49222;DHT22;35047;37.588;-122.048;2022-09-21T06:27:31;21.00;80.00
49222;DHT22;35047;37.588;-122.048;2022-09-21T06:29:58;21.30;79.30
49222;DHT22;35047;37.588;-122.048;2022-09-21T06:32:24;21.20;79.20
49222;DHT22;35047;37.588;-122.048;2022-09-21T06:34:51;21.20;79.20
49222;DHT22;35047;37.588;-122.048;2022-09-21T06:37:17;21.20;79.60
49222;DHT22;35047;37.588;-122.048;2022-09-21T06:39:44;21.00;80.40
49222;DHT22;35047;37.588;-122.048;2022-09-21T06:42:11;20.90;80.90
49222;DHT22;35047;37.588;-122.048;2022-09-21T06:44:37;20.80;81.90
49222;DHT22;35047;37.588;-122.048;2022-09-21T06:47:04;20.70;82.30
49222;DHT22;35047;37.588;-122.048;2022-09-21T06:49:30;20.70;82.60
49222;DHT22;35047;37.588;-122.048;2022-09-21T06:51:58;20.50;83.10
49222;DHT22;35047;37.588;-122.048;2022-09-21T06:54:25;20.50;83.30
49222;DHT22;35047;37.588;-122.048;2022-09-21T06:56:52;20.60;83.90
49222;DHT22;35047;37.588;-122.048;2022-09-21T06:59:19;20.60;84.90
49222;DHT22;35047;37.588;-122.048;2022-09-21T07:01:46;20.60;83.70
49222;DHT22;35047;37.588;-122.048;2022-09-21T07:04:13;20.70;84.20
49222;DHT22;35047;37.588;-122.048;2022-09-21T07:06:40;20.60;84.30
49222;DHT22;35047;37.588;-122.048;2022-09-21T07:09:06;20.60;84.30
49222;DHT22;35047;37.588;-122.048;2022-09-21T07:11:33;20.50;85.40
49222;DHT22;35047;37.588;-122.048;2022-09-21T07:13:59;20.50;86.20
49222;DHT22;35047;37.588;-122.048;2022-09-21T07:16:26;20.50;86.20
49222;DHT22;35047;37.588;-122.048;2022-09-21T07:18:53;20.40;86.10
49222;DHT22;35047;37.588;-122.048;2022-09-21T07:21:20;20.40;87.00
49222;DHT22;35047;37.588;-122.048;2022-09-21T07:23:47;20.50;85.70
49222;DHT22;35047;37.588;-122.048;2022-09-21T07:26:14;20.60;85.60
49222;DHT22;35047;37.588;-122.048;2022-09-21T07:28:41;20.60;86.20
49222;DHT22;35047;37.588;-122.048;2022-09-21T07:31:12;20.50;86.20
49222;DHT22;35047;37.588;-122.048;2022-09-21T07:33:40;20.50;87.00
49222;DHT22;35047;37.588;-122.048;2022-09-21T07:36:06;20.50;86.60
49222;DHT22;35047;37.588;-122.048;2022-09-21T07:38:38;20.50;87.30
49222;DHT22;35047;37.588;-122.048;2022-09-21T07:41:06;20.40;86.90
49222;DHT22;35047;37.588;-122.048;2022-09-21T07:43:33;20.60;86.90
49222;DHT22;35047;37.588;-122.048;2022-09-21T07:46:00;20.50;87.40
49222;DHT22;35047;37.588;-122.048;2022-09-21T07:48:28;20.50;87.10
49222;DHT22;35047;37.588;-122.048;2022-09-21T07:51:01;20.50;87.20
49222;DHT22;35047;37.588;-122.048;2022-09-21T07:53:29;20.50;88.00
49222;DHT22;35047;37.588;-122.048;2022-09-21T07:56:04;20.50;88.60
49222;DHT22;35047;37.588;-122.048;2022-09-21T07:58:32;20.50;88.20
49222;DHT22;35047;37.588;-122.048;2022-09-21T08:01:17;20.50;87.50
49222;DHT22;35047;37.588;-122.048;2022-09-21T08:03:47;20.40;88.00
49222;DHT22;35047;37.588;-122.048;2022-09-21T08:06:14;20.50;88.50
49222;DHT22;35047;37.588;-122.048;2022-09-21T08:08:40;20.60;87.90
49222;DHT22;35047;37.588;-122.048;2022-09-21T08:11:08;20.50;88.20
49222;DHT22;35047;37.588;-122.048;2022-09-21T08:13:37;20.50;88.70
49222;DHT22;35047;37.588;-122.048;2022-09-21T08:16:03;20.50;88.40
49222;DHT22;35047;37.588;-122.048;2022-09-21T08:18:30;20.40;89.20
49222;DHT22;35047;37.588;-122.048;2022-09-21T08:20:58;20.40;89.20
49222;DHT22;35047;37.588;-122.048;2022-09-21T08:23:27;20.40;89.90
49222;DHT22;35047;37.588;-122.048;2022-09-21T08:26:02;20.30;89.90
49222;DHT22;35047;37.588;-122.048;2022-09-21T08:28:34;20.20;89.90
49222;DHT22;35047;37.588;-122.048;2022-09-21T08:31:06;20.20;90.20
49222;DHT22;35047;37.588;-122.048;2022-09-21T08:33:34;20.30;90.30
49222;DHT22;35047;37.588;-122.048;2022-09-21T08:36:01;20.40;90.10
49222;DHT22;35047;37.588;-122.048;2022-09-21T08:38:33;20.30;90.20
49222;DHT22;35047;37.588;-122.048;2022-09-21T08:41:02;20.20;90.30
49222;DHT22;35047;37.588;-122.048;2022-09-21T08:43:39;20.20;90.50
49222;DHT22;35047;37.588;-122.048;2022-09-21T08:46:11;20.20;90.90
49222;DHT22;35047;37.588;-122.048;2022-09-21T08:49:00;20.30;90.80
49222;DHT22;35047;37.588;-122.048;2022-09-21T08:51:33;20.40;90.60
49222;DHT22;35047;37.588;-122.048;2022-09-21T08:54:09;20.40;90.40
49222;DHT22;35047;37.588;-122.048;2022-09-21T08:56:38;20.30;90.50
49222;DHT22;35047;37.588;-122.048;2022-09-21T08:59:13;20.30;90.60
49222;DHT22;35047;37.588;-122.048;2022-09-21T09:01:54;20.30;91.10
49222;DHT22;35047;37.588;-122.048;2022-09-21T09:04:25;20.20;91.00
49222;DHT22;35047;37.588;-122.048;2022-09-21T09:10:00;20.30;91.10
49222;DHT22;35047;37.588;-122.048;2022-09-21T09:13:02;20.30;91.20
49222;DHT22;35047;37.588;-122.048;2022-09-21T09:15:33;20.40;91.40
49222;DHT22;35047;37.588;-122.048;2022-09-21T09:18:10;20.50;91.20
49222;DHT22;35047;37.588;-122.048;2022-09-21T09:21:00;20.60;91.20
49222;DHT22;35047;37.588;-122.048;2022-09-21T09:23:31;20.70;91.00
49222;DHT22;35047;37.588;-122.048;2022-09-21T09:26:05;20.80;90.80
49222;DHT22;35047;37.588;-122.048;2022-09-21T09:28:42;20.80;90.50
49222;DHT22;35047;37.588;-122.048;2022-09-21T09:31:43;20.80;90.50
49222;DHT22;35047;37.588;-122.048;2022-09-21T09:34:34;20.70;90.90
49222;DHT22;35047;37.588;-122.048;2022-09-21T09:37:16;20.80;90.30
49222;DHT22;35047;37.588;-122.048;2022-09-21T09:39:50;20.80;90.80
49222;DHT22;35047;37.588;-122.048;2022-09-21T09:52:39;20.20;93.60
49222;DHT22;35047;37.588;-122.048;2022-09-21T09:55:17;20.20;94.20
49222;DHT22;35047;37.588;-122.048;2022-09-21T09:57:47;20.10;94.40
49222;DHT22;35047;37.588;-122.048;2022-09-21T10:00:19;19.90;95.00
49222;DHT22;35047;37.588;-122.048;2022-09-21T10:02:52;19.90;95.30
49222;DHT22;35047;37.588;-122.048;2022-09-21T10:05:22;19.80;95.50
49222;DHT22;35047;37.588;-122.048;2022-09-21T10:07:50;19.80;95.40
49222;DHT22;35047;37.588;-122.048;2022-09-21T10:10:34;19.80;95.60
49222;DHT22;35047;37.588;-122.048;2022-09-21T10:13:27;19.70;95.20
49222;DHT22;35047;37.588;-122.048;2022-09-21T10:21:08;19.40;96.90
49222;DHT22;35047;37.588;-122.048;2022-09-21T10:23:48;19.30;96.60
49222;DHT22;35047;37.588;-122.048;2022-09-21T10:26:16;19.30;96.50
49222;DHT22;35047;37.588;-122.048;2022-09-21T10:28:57;19.20;96.90
49222;DHT22;35047;37.588;-122.048;2022-09-21T10:31:29;19.20;96.90
49222;DHT22;35047;37.588;-122.048;2022-09-21T10:34:15;19.10;97.30
49222;DHT22;35047;37.588;-122.048;2022-09-21T10:36:49;19.10;97.50
49222;DHT22;35047;37.588;-122.048;2022-09-21T10:39:25;19.20;97.50
49222;DHT22;35047;37.588;-122.048;2022-09-21T10:42:10;19.30;97.50
49222;DHT22;35047;37.588;-122.048;2022-09-21T10:45:17;19.20;96.90
49222;DHT22;35047;37.588;-122.048;2022-09-21T10:47:50;19.20;97.80
49222;DHT22;35047;37.588;-122.048;2022-09-21T10:53:01;19.30;97.70
49222;DHT22;35047;37.588;-122.048;2022-09-21T10:55:45;19.40;97.70
49222;DHT22;35047;37.588;-122.048;2022-09-21T10:58:16;19.40;97.60
49222;DHT22;35047;37.588;-122.048;2022-09-21T11:00:45;19.40;97.50
49222;DHT22;35047;37.588;-122.048;2022-09-21T11:03:37;19.40;97.40
49222;DHT22;35047;37.588;-122.048;2022-09-21T11:06:39;19.30;98.00
49222;DHT22;35047;37.588;-122.048;2022-09-21T11:09:21;19.40;97.60
49222;DHT22;35047;37.588;-122.048;2022-09-21T11:15:14;19.70;97.00
49222;DHT22;35047;37.588;-122.048;2022-09-21T11:18:52;19.70;96.90
49222;DHT22;35047;37.588;-122.048;2022-09-21T11:21:34;19.60;96.80
49222;DHT22;35047;37.588;-122.048;2022-09-21T11:27:02;19.40;97.30
49222;DHT22;35047;37.588;-122.048;2022-09-21T11:29:45;19.30;97.40
49222;DHT22;35047;37.588;-122.048;2022-09-21T11:35:22;19.40;97.20
49222;DHT22;35047;37.588;-122.048;2022-09-21T11:38:30;19.30;97.80
49222;DHT22;35047;37.588;-122.048;2022-09-21T11:44:09;19.40;98.00
49222;DHT22;35047;37.588;-122.048;2022-09-21T11:47:26;19.40;97.50
49222;DHT22;35047;37.588;-122.048;2022-09-21T11:55:39;19.40;97.60
49222;DHT22;35047;37.588;-122.048;2022-09-21T12:04:16;19.40;97.90
49222;DHT22;35047;37.588;-122.048;2022-09-21T12:12:28;19.50;97.60
49222;DHT22;35047;37.588;-122.048;2022-09-21T12:15:22;19.60;98.40
49222;DHT22;35047;37.588;-122.048;2022-09-21T12:21:12;19.80;97.60
49222;DHT22;35047;37.588;-122.048;2022-09-21T12:26:21;19.80;97.80
49222;DHT22;35047;37.588;-122.048;2022-09-21T12:29:01;19.90;98.30
49222;DHT22;35047;37.588;-122.048;2022-09-21T12:34:20;20.20;97.30
49222;DHT22;35047;37.588;-122.048;2022-09-21T12:37:41;20.50;96.80
49222;DHT22;35047;37.588;-122.048;2022-09-21T12:39:58;20.70;96.20
49222;DHT22;35047;37.588;-122.048;2022-09-21T12:45:15;20.70;95.20
49222;DHT22;35047;37.588;-122.048;2022-09-21T12:47:45;20.40;95.80
49222;DHT22;35047;37.588;-122.048;2022-09-21T12:52:47;20.10;96.30
49222;DHT22;35047;37.588;-122.048;2022-09-21T12:55:29;20.00;96.50
49222;DHT22;35047;37.588;-122.048;2022-09-21T13:09:33;19.30;97.40
49222;DHT22;35047;37.588;-122.048;2022-09-21T13:12:20;19.40;98.10
49222;DHT22;35047;37.588;-122.048;2022-09-21T13:14:52;19.40;97.70
49222;DHT22;35047;37.588;-122.048;2022-09-21T13:17:22;19.50;97.90
49222;DHT22;35047;37.588;-122.048;2022-09-21T13:20:02;19.40;97.80
49222;DHT22;35047;37.588;-122.048;2022-09-21T13:22:34;19.50;98.30
49222;DHT22;35047;37.588;-122.048;2022-09-21T13:30:49;19.50;98.40
49222;DHT22;35047;37.588;-122.048;2022-09-21T13:33:39;19.50;98.50
49222;DHT22;35047;37.588;-122.048;2022-09-21T13:36:32;19.40;98.40
49222;DHT22;35047;37.588;-122.048;2022-09-21T13:39:17;19.30;98.80
49222;DHT22;35047;37.588;-122.048;2022-09-21T13:41:45;19.30;99.60
49222;DHT22;35047;37.588;-122.048;2022-09-21T13:44:21;19.30;99.70
49222;DHT22;35047;37.588;-122.048;2022-09-21T13:47:01;19.40;99.90
49222;DHT22;35047;37.588;-122.048;2022-09-21T13:49:41;19.40;99.30
49222;DHT22;35047;37.588;-122.048;2022-09-21T13:57:38;19.40;99.40
49222;DHT22;35047;37.588;-122.048;2022-09-21T14:05:33;19.40;99.90
49222;DHT22;35047;37.588;-122.048;2022-09-21T14:08:06;19.40;99.80
49222;DHT22;35047;37.588;-122.048;2022-09-21T14:10:59;19.50;99.80
49222;DHT22;35047;37.588;-122.048;2022-09-21T14:18:53;19.40;99.90
49222;DHT22;35047;37.588;-122.048;2022-09-21T14:21:21;19.40;99.90
49222;DHT22;35047;37.588;-122.048;2022-09-21T14:24:18;19.40;99.90
49222;DHT22;35047;37.588;-122.048;2022-09-21T14:32:40;19.60;99.90
49222;DHT22;35047;37.588;-122.048;2022-09-21T14:35:19;19.60;99.90
49222;DHT22;35047;37.588;-122.048;2022-09-21T14:37:56;19.60;99.90
49222;DHT22;35047;37.588;-122.048;2022-09-21T14:42:58;19.80;99.90
49222;DHT22;35047;37.588;-122.048;2022-09-21T14:45:58;19.80;99.90
49222;DHT22;35047;37.588;-122.048;2022-09-21T15:02:25;19.70;99.90
49222;DHT22;35047;37.588;-122.048;2022-09-21T15:21:48;19.20;99.90
49222;DHT22;35047;37.588;-122.048;2022-09-21T15:24:30;19.30;99.90
49222;DHT22;35047;37.588;-122.048;2022-09-21T15:27:28;19.40;99.90
49222;DHT22;35047;37.588;-122.048;2022-09-21T15:30:03;19.50;99.90
49222;DHT22;35047;37.588;-122.048;2022-09-21T15:32:45;19.80;99.90
49222;DHT22;35047;37.588;-122.048;2022-09-21T15:35:22;19.80;99.90
49222;DHT22;35047;37.588;-122.048;2022-09-21T15:37:52;19.80;99.90
49222;DHT22;35047;37.588;-122.048;2022-09-21T15:40:22;19.80;99.90
49222;DHT22;35047;37.588;-122.048;2022-09-21T15:45:51;20.10;99.90
49222;DHT22;35047;37.588;-122.048;2022-09-21T15:48:38;20.10;99.90
49222;DHT22;35047;37.588;-122.048;2022-09-21T15:51:33;20.20;99.90
49222;DHT22;35047;37.588;-122.048;2022-09-21T15:54:35;20.40;99.90
49222;DHT22;35047;37.588;-122.048;2022-09-21T15:57:03;20.40;99.90
49222;DHT22;35047;37.588;-122.048;2022-09-21T15:59:32;20.30;99.90
49222;DHT22;35047;37.588;-122.048;2022-09-21T16:02:09;20.40;99.90
49222;DHT22;35047;37.588;-122.048;2022-09-21T16:04:37;20.40;99.40
49222;DHT22;35047;37.588;-122.048;2022-09-21T16:07:32;20.50;99.90
49222;DHT22;35047;37.588;-122.048;2022-09-21T16:09:58;20.60;99.00
49222;DHT22;35047;37.588;-122.048;2022-09-21T16:14:52;20.90;99.60
49222;DHT22;35047;37.588;-122.048;2022-09-21T16:17:26;21.20;97.10
49222;DHT22;35047;37.588;-122.048;2022-09-21T16:24:57;21.60;97.90
49222;DHT22;35047;37.588;-122.048;2022-09-21T16:27:27;21.60;96.50
49222;DHT22;35047;37.588;-122.048;2022-09-21T16:29:56;21.70;97.80
49222;DHT22;35047;37.588;-122.048;2022-09-21T16:35:21;21.80;97.90
49222;DHT22;35047;37.588;-122.048;2022-09-21T16:37:56;22.00;97.40
49222;DHT22;35047;37.588;-122.048;2022-09-21T16:40:24;22.10;96.60
49222;DHT22;35047;37.588;-122.048;2022-09-21T16:42:51;22.10;95.20
49222;DHT22;35047;37.588;-122.048;2022-09-21T16:45:22;21.90;93.70
49222;DHT22;35047;37.588;-122.048;2022-09-21T16:47:49;22.00;95.10
49222;DHT22;35047;37.588;-122.048;2022-09-21T16:50:18;22.00;94.30
49222;DHT22;35047;37.588;-122.048;2022-09-21T16:52:48;22.10;94.20
49222;DHT22;35047;37.588;-122.048;2022-09-21T16:55:20;22.10;93.70
49222;DHT22;35047;37.588;-122.048;2022-09-21T16:57:47;22.20;94.20
49222;DHT22;35047;37.588;-122.048;2022-09-21T17:00:16;22.40;93.60
49222;DHT22;35047;37.588;-122.048;2022-09-21T17:02:49;22.80;95.00
49222;DHT22;35047;37.588;-122.048;2022-09-21T17:05:17;22.80;92.00
49222;DHT22;35047;37.588;-122.048;2022-09-21T17:07:53;23.10;93.10
49222;DHT22;35047;37.588;-122.048;2022-09-21T17:10:28;23.40;91.40
49222;DHT22;35047;37.588;-122.048;2022-09-21T17:12:56;23.70;90.40
49222;DHT22;35047;37.588;-122.048;2022-09-21T17:15:24;24.10;92.50
49222;DHT22;35047;37.588;-122.048;2022-09-21T17:17:52;24.50;90.10
49222;DHT22;35047;37.588;-122.048;2022-09-21T17:20:33;24.70;90.10
49222;DHT22;35047;37.588;-122.048;2022-09-21T17:23:01;24.80;88.30
49222;DHT22;35047;37.588;-122.048;2022-09-21T17:25:32;24.70;85.40
49222;DHT22;35047;37.588;-122.048;2022-09-21T17:28:00;24.50;85.70
49222;DHT22;35047;37.588;-122.048;2022-09-21T17:30:28;24.70;88.10
49222;DHT22;35047;37.588;-122.048;2022-09-21T17:32:55;25.00;84.50
49222;DHT22;35047;37.588;-122.048;2022-09-21T17:35:39;25.00;83.20
49222;DHT22;35047;37.588;-122.048;2022-09-21T17:38:06;25.20;83.00
49222;DHT22;35047;37.588;-122.048;2022-09-21T17:40:34;25.30;81.10
49222;DHT22;35047;37.588;-122.048;2022-09-21T17:43:15;25.60;82.30
49222;DHT22;35047;37.588;-122.048;2022-09-21T17:46:10;25.60;80.80
49222;DHT22;35047;37.588;-122.048;2022-09-21T17:48:40;25.20;76.60
49222;DHT22;35047;37.588;-122.048;2022-09-21T17:51:07;25.20;80.50
49222;DHT22;35047;37.588;-122.048;2022-09-21T17:53:34;25.10;79.40
49222;DHT22;35047;37.588;-122.048;2022-09-21T17:56:30;25.30;80.00
49222;DHT22;35047;37.588;-122.048;2022-09-21T17:59:04;25.60;79.20
49222;DHT22;35047;37.588;-122.048;2022-09-21T18:01:35;25.80;80.00
49222;DHT22;35047;37.588;-122.048;2022-09-21T18:04:06;25.80;77.70
49222;DHT22;35047;37.588;-122.048;2022-09-21T18:06:39;25.80;77.10
49222;DHT22;35047;37.588;-122.048;2022-09-21T18:09:05;25.90;77.30
49222;DHT22;35047;37.588;-122.048;2022-09-21T18:11:59;26.20;77.80
49222;DHT22;35047;37.588;-122.048;2022-09-21T18:14:56;26.40;74.70
49222;DHT22;35047;37.588;-122.048;2022-09-21T18:17:31;26.60;75.40
49222;DHT22;35047;37.588;-122.048;2022-09-21T18:23:17;27.20;73.60
49222;DHT22;35047;37.588;-122.048;2022-09-21T18:25:45;27.10;73.00
49222;DHT22;35047;37.588;-122.048;2022-09-21T18:40:02;27.40;73.00
49222;DHT22;35047;37.588;-122.048;2022-09-21T18:42:47;27.50;72.50
49222;DHT22;35047;37.588;-122.048;2022-09-21T18:48:15;27.40;71.10
49222;DHT22;35047;37.588;-122.048;2022-09-21T18:54:21;27.30;71.00
49222;DHT22;35047;37.588;-122.048;2022-09-21T18:56:52;27.20;69.60
49222;DHT22;35047;37.588;-122.048;2022-09-21T18:59:20;27.30;69.60